MSC Krittika — H3RV — position and weather

sailwx.info

Track history (hours):
 
Tides and Currents Weather Stations Pressure Air Temp Water Temp Dewpoint Dewpoint Depression Visibility Wind Speed Wind Dir Waves Ship Positions

MSC Krittika

Last reported at 2016-Feb-11 06:28 UTC. Time now 2016-Feb-13 00:15 UTC.
Position N 01°15' E 103°44'.

Length 202 m; draft 10.1 m.

Type: Ship (hazmat cat A). MMSI: 354725000.

Date/timePositionNaut miles runAvg speedWind from/ knotsBaromVisibWave heightAir tempDewpointWater temp
2016-Feb-11 06:28N 01°15' E 103°44'3 1.2
2016-Feb-11 04:11N 01°16' E 103°46'0 0.0
2016-Feb-11 03:26N 01°16' E 103°46'0 0.0
2016-Feb-11 02:29N 01°16' E 103°46'0 0.0
2016-Feb-10 20:26N 01°16' E 103°46'0 0.0
2016-Feb-10 19:29N 01°16' E 103°46'0 0.0
2016-Feb-10 18:29N 01°16' E 103°46'0 0.0
2016-Feb-10 17:29N 01°16' E 103°46'0 0.0
2016-Feb-10 16:23N 01°16' E 103°46'0 0.0
2016-Feb-10 15:23N 01°16' E 103°46'0 0.0
2016-Feb-10 13:23N 01°16' E 103°46'0 0.0
2016-Feb-10 11:11N 01°16' E 103°46'0 0.0
2016-Feb-10 10:33N 01°16' E 103°46'5 4.5
2016-Feb-10 09:32N 01°14' E 103°42'8311.6
2016-Feb-10 02:21N 01°48' E 102°26'  
2016-Feb-07 15:29N 05°25' E 100°22'1 0.1
2016-Feb-07 03:24N 05°26' E 100°21'24812.5
2016-Feb-06 07:30N 01°52' E 102°27'82 1.8
2016-Feb-04 09:31N 01°12' E 103°38'9 8.9
2016-Feb-04 08:33N 01°16' E 103°46'0 0.1
2016-Feb-04 07:31N 01°16' E 103°46'0 0.0
2016-Feb-04 06:31N 01°16' E 103°46'0 0.0
2016-Feb-04 05:13N 01°16' E 103°46'0 0.0
2016-Feb-04 04:31N 01°16' E 103°46'0 0.0
2016-Feb-04 03:19N 01°16' E 103°46'0 0.0
2016-Feb-04 02:31N 01°16' E 103°46'0 0.0
2016-Feb-04 01:31N 01°16' E 103°46'0 0.0
2016-Feb-04 00:25N 01°16' E 103°46'0 0.0
2016-Feb-03 23:31N 01°16' E 103°46'0 0.0
2016-Feb-03 22:25N 01°16' E 103°46'0 0.0
2016-Feb-03 21:31N 01°16' E 103°46'0 0.0
2016-Feb-03 19:10N 01°16' E 103°46'0 0.0
2016-Feb-03 18:25N 01°16' E 103°46'0 0.0
2016-Feb-03 17:25N 01°16' E 103°46'0 0.0
2016-Feb-03 14:23N 01°16' E 103°46'3 4.2
2016-Feb-03 13:33N 01°14' E 103°43'  
Track history (hours):
 
Tides and Currents Weather Stations Pressure Air Temp Water Temp Dewpoint Dewpoint Depression Visibility Wind Speed Wind Dir Waves Ship Positions

MSC Krittika

Last reported at 2016-Feb-11 06:28 UTC. Time now 2016-Feb-13 00:15 UTC.
Position N 01°15' E 103°44'.

Length 202 m; draft 10.1 m.

Type: Ship (hazmat cat A). MMSI: 354725000.

Date/timePositionNaut miles runAvg speedWind from/ knotsBaromVisibWave heightAir tempDewpointWater temp
2016-Feb-11 06:28N 01°15' E 103°44'3 1.2
2016-Feb-11 04:11N 01°16' E 103°46'0 0.0
2016-Feb-11 03:26N 01°16' E 103°46'0 0.0
2016-Feb-11 02:29N 01°16' E 103°46'0 0.0
2016-Feb-10 20:26N 01°16' E 103°46'0 0.0
2016-Feb-10 19:29N 01°16' E 103°46'0 0.0
2016-Feb-10 18:29N 01°16' E 103°46'0 0.0
2016-Feb-10 17:29N 01°16' E 103°46'0 0.0
2016-Feb-10 16:23N 01°16' E 103°46'0 0.0
2016-Feb-10 15:23N 01°16' E 103°46'0 0.0
2016-Feb-10 13:23N 01°16' E 103°46'0 0.0
2016-Feb-10 11:11N 01°16' E 103°46'0 0.0
2016-Feb-10 10:33N 01°16' E 103°46'5 4.5
2016-Feb-10 09:32N 01°14' E 103°42'8311.6
2016-Feb-10 02:21N 01°48' E 102°26'  
2016-Feb-07 15:29N 05°25' E 100°22'1 0.1
2016-Feb-07 03:24N 05°26' E 100°21'24812.5
2016-Feb-06 07:30N 01°52' E 102°27'82 1.8
2016-Feb-04 09:31N 01°12' E 103°38'9 8.9
2016-Feb-04 08:33N 01°16' E 103°46'0 0.1
2016-Feb-04 07:31N 01°16' E 103°46'0 0.0
2016-Feb-04 06:31N 01°16' E 103°46'0 0.0
2016-Feb-04 05:13N 01°16' E 103°46'0 0.0
2016-Feb-04 04:31N 01°16' E 103°46'0 0.0
2016-Feb-04 03:19N 01°16' E 103°46'0 0.0
2016-Feb-04 02:31N 01°16' E 103°46'0 0.0
2016-Feb-04 01:31N 01°16' E 103°46'0 0.0
2016-Feb-04 00:25N 01°16' E 103°46'0 0.0
2016-Feb-03 23:31N 01°16' E 103°46'0 0.0
2016-Feb-03 22:25N 01°16' E 103°46'0 0.0
2016-Feb-03 21:31N 01°16' E 103°46'0 0.0
2016-Feb-03 19:10N 01°16' E 103°46'0 0.0
2016-Feb-03 18:25N 01°16' E 103°46'0 0.0
2016-Feb-03 17:25N 01°16' E 103°46'0 0.0
2016-Feb-03 14:23N 01°16' E 103°46'3 4.2
2016-Feb-03 13:33N 01°14' E 103°43'  

Dump ship's entire track history